createdAt,value
2022-12-29T00:00:24.049Z,93843.63
2022-12-29T00:01:56.526Z,93848.66
2022-12-29T00:03:28.980Z,93844.63
2022-12-29T00:05:00.723Z,93843.56
2022-12-29T00:06:32.376Z,93851.81
2022-12-29T00:08:04.076Z,93840.31
2022-12-29T00:09:35.733Z,93842.94
2022-12-29T00:11:09.140Z,93836.00
2022-12-29T00:12:59.398Z,93841.06
2022-12-29T00:14:49.584Z,93840.19
2022-12-29T00:16:21.227Z,93836.97
2022-12-29T00:17:52.979Z,93844.19
2022-12-29T00:19:43.621Z,93836.97
2022-12-29T00:21:34.505Z,93841.78
2022-12-29T00:23:24.643Z,93836.09
2022-12-29T00:24:56.192Z,93840.88
2022-12-29T00:26:46.600Z,93836.63
2022-12-29T00:28:36.809Z,93839.38
2022-12-29T00:30:29.916Z,93846.31
2022-12-29T00:32:20.128Z,93841.47
2022-12-29T00:34:10.149Z,93849.72
2022-12-29T00:35:48.797Z,93849.72
2022-12-29T00:37:40.254Z,93848.91
2022-12-29T00:39:32.082Z,93847.84
2022-12-29T00:41:22.051Z,93845.66
2022-12-29T00:43:12.116Z,93848.59
2022-12-29T00:44:43.723Z,93846.72
2022-12-29T00:46:19.617Z,93855.28
2022-12-29T00:47:51.924Z,93845.44
2022-12-29T00:49:32.929Z,93848.16
2022-12-29T00:51:04.666Z,93844.44
2022-12-29T00:52:36.211Z,93849.00
2022-12-29T00:54:07.836Z,93853.09
2022-12-29T00:55:41.502Z,93845.66
2022-12-29T00:57:13.608Z,93852.63
2022-12-29T00:58:45.307Z,93846.59
2022-12-29T01:02:50.113Z,93844.31
2022-12-29T01:04:22.263Z,93845.47
2022-12-29T01:05:54.153Z,93840.69
2022-12-29T01:07:25.685Z,93840.69
2022-12-29T01:09:16.028Z,93841.25
2022-12-29T01:10:47.845Z,93838.88
2022-12-29T01:12:39.446Z,93836.50
2022-12-29T01:14:11.100Z,93843.22
2022-12-29T01:15:42.656Z,93837.31
2022-12-29T01:17:14.277Z,93836.56
2022-12-29T01:18:45.970Z,93837.66
2022-12-29T01:20:17.561Z,93826.97
2022-12-29T01:21:49.883Z,93829.69
2022-12-29T01:23:21.570Z,93816.84
2022-12-29T01:24:53.203Z,93821.13
2022-12-29T01:26:24.877Z,93829.13
2022-12-29T01:27:56.518Z,93819.50
2022-12-29T01:29:28.109Z,93820.59
2022-12-29T01:31:01.338Z,93811.78
2022-12-29T01:32:32.961Z,93810.69
2022-12-29T01:34:04.672Z,93819.00
2022-12-29T01:35:36.217Z,93815.81
2022-12-29T01:37:07.929Z,93811.56
2022-12-29T01:38:39.583Z,93817.16
2022-12-29T01:40:11.430Z,93814.78
2022-12-29T01:41:43.109Z,93808.91
2022-12-29T01:43:15.439Z,93813.19
2022-12-29T01:44:57.145Z,93811.28
2022-12-29T01:46:36.012Z,93809.41
2022-12-29T01:48:07.521Z,93812.38
2022-12-29T01:49:39.125Z,93803.25
2022-12-29T01:51:10.770Z,93812.38
2022-12-29T01:52:43.581Z,93805.16
2022-12-29T01:54:18.891Z,93807.31
2022-12-29T01:55:51.493Z,93803.28
2022-12-29T01:57:25.306Z,93799.56
2022-12-29T01:59:03.963Z,93799.28
2022-12-29T02:00:35.810Z,93796.91
2022-12-29T02:02:07.494Z,93798.22
2022-12-29T02:03:39.360Z,93799.28
2022-12-29T02:05:12.555Z,93800.06
2022-12-29T02:06:55.409Z,93799.72
2022-12-29T02:08:27.410Z,93794.09
2022-12-29T02:09:59.077Z,93792.75
2022-12-29T02:11:30.700Z,93798.06
2022-12-29T02:13:02.356Z,93801.78
2022-12-29T02:14:33.869Z,93804.41
2022-12-29T02:16:17.983Z,93796.59
2022-12-29T02:17:57.200Z,93800.28
2022-12-29T02:19:37.675Z,93800.53
2022-12-29T02:21:28.061Z,93800.53
2022-12-29T02:23:22.727Z,93807.44
2022-12-29T02:25:13.194Z,93804.72
2022-12-29T02:27:03.541Z,93813.78
2022-12-29T02:28:47.203Z,93805.47
2022-12-29T02:30:31.600Z,93807.88
2022-12-29T02:32:18.951Z,93802.22
2022-12-29T02:33:59.594Z,93801.41
2022-12-29T02:35:34.882Z,93808.84
2022-12-29T02:37:09.296Z,93807.25
2022-12-29T02:38:59.401Z,93805.38
2022-12-29T02:40:39.954Z,93807.00
2022-12-29T02:42:30.704Z,93801.59
2022-12-29T02:44:09.253Z,93812.03
2022-12-29T02:45:59.958Z,93809.91
2022-12-29T02:47:37.847Z,93803.47
2022-12-29T02:49:11.708Z,93802.66
2022-12-29T02:50:45.075Z,93801.88
2022-12-29T02:52:21.292Z,93796.25
2022-12-29T02:54:12.256Z,93804.44
2022-12-29T02:55:50.181Z,93794.03
2022-12-29T02:57:21.898Z,93798.56
2022-12-29T02:58:53.442Z,93794.56
2022-12-29T03:00:24.960Z,93796.19
2022-12-29T03:02:15.437Z,93804.69
2022-12-29T03:03:50.598Z,93791.59
2022-12-29T03:05:57.785Z,93794.75
2022-12-29T03:07:47.883Z,93789.69
2022-12-29T03:09:27.567Z,93787.00
2022-12-29T03:11:28.885Z,93788.38
2022-12-29T03:13:37.733Z,93788.38
2022-12-29T03:15:30.015Z,93783.03
2022-12-29T03:17:02.721Z,93772.34
2022-12-29T03:18:34.340Z,93772.34
2022-12-29T03:20:08.644Z,93772.63
2022-12-29T03:22:05.658Z,93769.16
2022-12-29T03:23:37.303Z,93779.81
2022-12-29T03:25:20.092Z,93775.53
2022-12-29T03:26:51.884Z,93776.59
2022-12-29T03:28:43.739Z,93779.00
2022-12-29T03:30:15.289Z,93775.00
2022-12-29T03:31:46.987Z,93775.78
2022-12-29T03:33:20.070Z,93777.38
2022-12-29T03:34:51.765Z,93772.84
2022-12-29T03:36:31.635Z,93770.94
2022-12-29T03:38:06.012Z,93772.78
2022-12-29T03:39:37.677Z,93776.44
2022-12-29T03:41:11.806Z,93778.53
2022-12-29T03:42:43.396Z,93787.31
2022-12-29T03:44:14.976Z,93776.84
2022-12-29T03:45:46.508Z,93784.81
2022-12-29T03:47:18.145Z,93783.44
2022-12-29T03:48:50.053Z,93786.09
2022-12-29T03:50:21.626Z,93789.00
2022-12-29T03:51:53.238Z,93790.31
2022-12-29T03:53:24.786Z,93794.03
2022-12-29T03:54:56.450Z,93785.22
2022-12-29T03:56:28.047Z,93785.22
2022-12-29T03:57:59.627Z,93791.66
2022-12-29T03:59:31.233Z,93795.41
2022-12-29T04:01:02.835Z,93790.88
2022-12-29T04:02:35.045Z,93796.84
2022-12-29T04:04:06.743Z,93794.50
2022-12-29T04:05:38.347Z,93796.16
2022-12-29T04:07:10.437Z,93800.50
2022-12-29T04:08:41.913Z,93800.56
2022-12-29T04:10:13.511Z,93797.69
2022-12-29T04:11:45.427Z,93798.22
2022-12-29T04:13:17.190Z,93792.81
2022-12-29T04:14:49.830Z,93802.03
2022-12-29T04:16:21.675Z,93801.22
2022-12-29T04:17:53.544Z,93803.81
2022-12-29T04:19:25.138Z,93802.22
2022-12-29T04:21:03.768Z,93805.13
2022-12-29T04:22:36.101Z,93808.31
2022-12-29T04:24:07.984Z,93817.38
2022-12-29T04:25:40.081Z,93804.78
2022-12-29T04:27:11.731Z,93818.09
2022-12-29T04:28:43.355Z,93818.09
2022-12-29T04:30:15.017Z,93811.16
2022-12-29T04:31:46.954Z,93810.59
2022-12-29T04:33:18.981Z,93818.50
2022-12-29T04:34:50.862Z,93814.75
2022-12-29T04:36:27.847Z,93813.13
2022-12-29T04:38:01.767Z,93815.00
2022-12-29T04:39:35.256Z,93813.94
2022-12-29T04:41:06.886Z,93819.50
2022-12-29T04:42:38.441Z,93815.97
2022-12-29T04:44:10.073Z,93812.22
2022-12-29T04:45:45.143Z,93821.56
2022-12-29T04:47:17.536Z,93819.44
2022-12-29T04:48:50.228Z,93817.84
2022-12-29T04:50:21.854Z,93819.69
2022-12-29T04:51:53.483Z,93823.97
2022-12-29T04:53:25.106Z,93828.25
2022-12-29T04:54:56.695Z,93831.78
2022-12-29T04:56:28.317Z,93836.06
2022-12-29T04:58:00.017Z,93835.81
2022-12-29T04:59:31.808Z,93830.22
2022-12-29T05:01:04.540Z,93832.94
2022-12-29T05:02:36.905Z,93834.06
2022-12-29T05:04:08.596Z,93828.97
2022-12-29T05:05:40.094Z,93835.59
2022-12-29T05:07:11.708Z,93836.41
2022-12-29T05:08:43.373Z,93836.91
2022-12-29T05:10:15.145Z,93841.16
2022-12-29T05:11:46.707Z,93842.72
2022-12-29T05:13:18.763Z,93837.16
2022-12-29T05:14:50.381Z,93833.94
2022-12-29T05:16:22.139Z,93833.66
2022-12-29T05:18:18.204Z,93830.91
2022-12-29T05:19:49.888Z,93835.63
2022-12-29T05:21:21.415Z,93835.88
2022-12-29T05:22:52.907Z,93838.06
2022-12-29T05:24:24.377Z,93839.41
2022-12-29T05:25:56.069Z,93838.41
2022-12-29T05:27:28.041Z,93837.34
2022-12-29T05:29:01.005Z,93835.81
2022-12-29T05:30:32.715Z,93836.91
2022-12-29T05:45:02.512Z,93833.44
2022-12-29T05:46:34.173Z,93831.94
2022-12-29T05:48:05.987Z,93830.41
2022-12-29T05:49:37.672Z,93831.03
2022-12-29T05:51:09.267Z,93838.56
2022-12-29T05:52:45.101Z,93835.41
2022-12-29T05:54:16.698Z,93837.59
2022-12-29T05:55:49.239Z,93846.22
2022-12-29T05:57:20.990Z,93834.44
2022-12-29T05:58:52.592Z,93852.81
2022-12-29T06:00:24.545Z,93840.50
2022-12-29T06:01:56.528Z,93844.97
2022-12-29T06:03:28.401Z,93845.50
2022-12-29T06:05:00.421Z,93841.78
2022-12-29T06:06:32.195Z,93848.72
2022-12-29T06:08:03.921Z,93851.66
2022-12-29T06:09:35.502Z,93852.72
2022-12-29T06:11:07.069Z,93850.41
2022-12-29T06:12:38.776Z,93853.97
2022-12-29T06:14:10.375Z,93858.06
2022-12-29T06:15:42.018Z,93856.28
2022-12-29T06:17:14.187Z,93855.78
2022-12-29T06:18:45.782Z,93855.81
2022-12-29T06:20:17.346Z,93853.69
2022-12-29T06:21:49.045Z,93863.88
2022-12-29T06:23:20.891Z,93854.00
2022-12-29T06:24:52.504Z,93851.34
2022-12-29T06:26:24.088Z,93857.22
2022-12-29T06:27:55.648Z,93855.84
2022-12-29T06:29:27.268Z,93853.44
2022-12-29T06:30:58.993Z,93861.50
2022-12-29T06:32:30.637Z,93853.53
2022-12-29T06:34:07.958Z,93857.34
2022-12-29T06:35:40.143Z,93855.22
2022-12-29T06:37:11.941Z,93860.09
2022-12-29T06:38:43.473Z,93857.44
2022-12-29T06:40:15.170Z,93860.38
2022-12-29T06:41:46.671Z,93859.88
2022-12-29T06:43:18.345Z,93862.81
2022-12-29T06:44:50.051Z,93865.22
2022-12-29T06:46:21.738Z,93869.25
2022-12-29T06:47:53.372Z,93864.47
2022-12-29T06:49:24.939Z,93871.13
2022-12-29T06:50:57.945Z,93866.06
2022-12-29T06:52:29.817Z,93866.38
2022-12-29T06:54:01.545Z,93861.56
2022-12-29T06:55:33.207Z,93868.50
2022-12-29T06:57:04.842Z,93872.53
2022-12-29T06:58:36.391Z,93872.25
2022-12-29T07:00:08.416Z,93866.38
2022-12-29T07:01:40.156Z,93870.94
2022-12-29T07:03:12.846Z,93870.44
2022-12-29T07:04:44.685Z,93869.63
2022-12-29T07:06:16.411Z,93876.31
2022-12-29T07:07:48.311Z,93874.72
2022-12-29T07:09:20.182Z,93887.03
2022-12-29T07:10:53.679Z,93886.28
2022-12-29T07:12:26.492Z,93879.31
2022-12-29T07:14:01.987Z,93882.81
2022-12-29T07:15:36.283Z,93882.53
2022-12-29T07:17:08.981Z,93884.41
2022-12-29T07:18:40.969Z,93883.88
2022-12-29T07:20:13.579Z,93890.50
2022-12-29T07:21:45.627Z,93876.03
2022-12-29T07:23:19.483Z,93880.03
2022-12-29T07:24:51.661Z,93876.25
2022-12-29T07:26:23.340Z,93885.63
2022-12-29T07:27:56.394Z,93887.75
2022-12-29T07:29:28.418Z,93884.28
2022-12-29T07:31:01.699Z,93886.16
2022-12-29T07:32:35.524Z,93893.09
2022-12-29T07:34:07.227Z,93887.75
2022-12-29T07:35:39.005Z,93890.47
2022-12-29T07:37:10.681Z,93890.19
2022-12-29T07:38:43.479Z,93888.03
2022-12-29T07:40:16.362Z,93894.41
2022-12-29T07:41:49.022Z,93887.75
2022-12-29T07:43:20.731Z,93886.16
2022-12-29T07:44:52.773Z,93895.53
2022-12-29T07:46:56.677Z,93892.28
2022-12-29T07:48:17.870Z,93890.16
2022-12-29T07:49:50.523Z,93891.78
2022-12-29T07:51:22.037Z,93892.06
2022-12-29T07:52:56.161Z,93890.75
2022-12-29T07:54:30.452Z,93889.75
2022-12-29T07:56:03.437Z,93890.03
2022-12-29T07:57:38.483Z,93897.81
2022-12-29T07:59:10.178Z,93888.72
2022-12-29T08:00:43.898Z,93890.03
2022-12-29T08:02:15.739Z,93886.03
2022-12-29T08:03:55.466Z,93890.88
2022-12-29T08:05:31.050Z,93901.06
2022-12-29T08:07:04.339Z,93902.13
2022-12-29T08:08:36.373Z,93898.94
2022-12-29T08:10:09.356Z,93894.91
2022-12-29T08:11:41.769Z,93896.84
2022-12-29T08:13:14.120Z,93898.97
2022-12-29T08:14:46.885Z,93895.78
2022-12-29T08:16:18.609Z,93900.03
2022-12-29T08:17:50.420Z,93897.13
2022-12-29T08:19:22.119Z,93903.03
2022-12-29T08:20:55.859Z,93897.66
2022-12-29T08:22:28.073Z,93904.38
2022-12-29T08:24:02.296Z,93898.72
2022-12-29T08:25:36.508Z,93908.63
2022-12-29T08:27:18.130Z,93897.38
2022-12-29T08:28:58.090Z,93903.53
2022-12-29T08:30:30.789Z,93899.19
2022-12-29T08:32:03.203Z,93899.44
2022-12-29T08:33:35.010Z,93903.97
2022-12-29T08:35:06.989Z,93897.00
2022-12-29T08:36:39.678Z,93898.59
2022-12-29T08:38:12.826Z,93901.53
2022-12-29T08:39:45.692Z,93906.63
2022-12-29T08:41:17.924Z,93902.06
2022-12-29T08:42:55.254Z,93900.47
2022-12-29T08:44:28.562Z,93901.28
2022-12-29T08:46:02.914Z,93893.44
2022-12-29T08:47:35.377Z,93895.28
2022-12-29T08:49:08.652Z,93900.88
2022-12-29T08:50:41.023Z,93900.00
2022-12-29T08:52:15.884Z,93899.16
2022-12-29T08:53:49.007Z,93892.63
2022-12-29T08:55:23.289Z,93899.28
2022-12-29T08:56:56.156Z,93898.38
2022-12-29T08:58:27.798Z,93901.00
2022-12-29T08:59:59.462Z,93889.63
2022-12-29T09:01:38.224Z,93897.34
2022-12-29T09:03:10.821Z,93891.03
2022-12-29T09:04:43.653Z,93890.63
2022-12-29T09:06:17.840Z,93893.53
2022-12-29T09:07:54.002Z,93893.72
2022-12-29T09:09:27.275Z,93889.28
2022-12-29T09:11:09.932Z,93883.94
2022-12-29T09:12:43.910Z,93890.75
2022-12-29T09:14:15.897Z,93884.59
2022-12-29T09:15:47.777Z,93885.56
2022-12-29T09:17:38.064Z,93881.72
2022-12-29T09:19:09.700Z,93880.19
2022-12-29T09:20:41.343Z,93882.28
2022-12-29T09:22:13.108Z,93882.16
2022-12-29T09:23:44.745Z,93882.88
2022-12-29T09:25:16.626Z,93879.69
2022-12-29T09:26:48.449Z,93885.16
2022-12-29T09:28:20.197Z,93880.06
2022-12-29T09:29:51.751Z,93886.03
2022-12-29T09:31:23.369Z,93890.38
2022-12-29T09:32:55.290Z,93885.28
2022-12-29T09:34:27.346Z,93885.59
2022-12-29T09:35:58.920Z,93881.72
2022-12-29T09:37:30.518Z,93877.75
2022-12-29T09:39:02.357Z,93885.91
2022-12-29T09:40:34.081Z,93870.03
2022-12-29T09:42:17.737Z,93866.03
2022-12-29T09:43:52.636Z,93875.94
2022-12-29T09:45:29.333Z,93868.88
2022-12-29T09:47:02.146Z,93873.19
2022-12-29T09:48:35.059Z,93868.88
2022-12-29T09:50:10.482Z,93869.19
2022-12-29T09:51:42.736Z,93860.59
2022-12-29T09:53:26.325Z,93861.59
2022-12-29T09:55:03.810Z,93851.00
2022-12-29T09:56:38.029Z,93853.69
2022-12-29T09:58:13.574Z,93850.91
2022-12-29T09:59:45.258Z,93860.59
2022-12-29T10:01:30.373Z,93857.63
2022-12-29T10:03:28.496Z,93855.44
2022-12-29T10:05:00.152Z,93851.66
2022-12-29T10:07:28.681Z,93856.31
2022-12-29T10:09:01.350Z,93848.16
2022-12-29T10:10:54.589Z,93850.34
2022-12-29T10:12:34.226Z,93853.03
2022-12-29T10:14:07.560Z,93841.41
2022-12-29T10:15:41.343Z,93839.41
2022-12-29T10:17:13.098Z,93840.34
2022-12-29T10:18:57.814Z,93837.00
2022-12-29T10:20:32.230Z,93837.50
2022-12-29T10:22:13.187Z,93834.50
2022-12-29T10:23:49.901Z,93825.41
2022-12-29T10:25:22.331Z,93821.56
2022-12-29T10:26:54.020Z,93832.63
2022-12-29T10:28:45.902Z,93821.22
2022-12-29T10:30:17.630Z,93824.06
2022-12-29T10:31:55.640Z,93830.03
2022-12-29T10:33:32.020Z,93818.53
2022-12-29T10:35:07.026Z,93818.34
2022-12-29T10:36:41.894Z,93815.56
2022-12-29T10:38:19.869Z,93817.47
2022-12-29T10:39:52.441Z,93820.84
2022-12-29T10:41:28.832Z,93817.69
2022-12-29T10:43:00.716Z,93819.66
2022-12-29T10:44:32.651Z,93811.16
2022-12-29T10:46:07.081Z,93821.16
2022-12-29T10:47:39.972Z,93810.66
2022-12-29T10:49:21.253Z,93817.38
2022-12-29T10:50:57.231Z,93818.47
2022-12-29T10:52:33.599Z,93805.66
2022-12-29T10:54:06.717Z,93811.78
2022-12-29T10:55:38.492Z,93820.84
2022-12-29T10:57:11.992Z,93808.06
2022-12-29T10:58:48.050Z,93802.06
2022-12-29T11:00:21.856Z,93802.66
2022-12-29T11:02:09.851Z,93799.25
2022-12-29T11:03:47.734Z,93801.75
2022-12-29T11:05:24.075Z,93802.03
2022-12-29T11:06:55.802Z,93799.59
2022-12-29T11:08:29.209Z,93797.84
2022-12-29T11:10:23.938Z,93799.66
2022-12-29T11:11:55.511Z,93794.06
2022-12-29T11:13:29.922Z,93790.25
2022-12-29T11:15:08.714Z,93795.06
2022-12-29T11:16:41.089Z,93786.97
2022-12-29T11:18:38.769Z,93784.34
2022-12-29T11:20:29.443Z,93784.47
2022-12-29T11:22:20.536Z,93787.38
2022-12-29T11:24:01.931Z,93791.13
2022-12-29T11:25:33.586Z,93775.13
2022-12-29T11:27:21.850Z,93776.94
2022-12-29T11:29:11.529Z,93773.38
2022-12-29T11:30:43.710Z,93776.16
2022-12-29T11:32:28.129Z,93774.56
2022-12-29T11:34:02.209Z,93774.78
2022-12-29T11:35:37.052Z,93771.22
2022-12-29T11:37:19.442Z,93773.16
2022-12-29T11:38:52.340Z,93769.44
2022-12-29T11:40:25.055Z,93777.84
2022-12-29T11:41:57.734Z,93768.66
2022-12-29T11:43:34.752Z,93773.53
2022-12-29T11:45:10.949Z,93773.06
2022-12-29T11:46:43.025Z,93778.56
2022-12-29T11:48:21.382Z,93772.47
2022-12-29T11:49:55.877Z,93759.78
2022-12-29T11:51:28.838Z,93764.28
2022-12-29T11:53:04.615Z,93758.09
2022-12-29T11:54:36.700Z,93762.09
2022-12-29T11:56:13.584Z,93760.41
2022-12-29T11:57:48.217Z,93762.59
2022-12-29T11:59:46.347Z,93763.28
2022-12-29T12:01:20.833Z,93763.63
2022-12-29T12:02:52.669Z,93756.75
2022-12-29T12:04:25.049Z,93763.03
2022-12-29T12:06:01.956Z,93765.03
2022-12-29T12:07:39.193Z,93757.44
2022-12-29T12:09:12.758Z,93757.63
2022-12-29T12:10:48.817Z,93760.94
2022-12-29T12:12:24.384Z,93748.97
2022-12-29T12:13:57.804Z,93755.19
2022-12-29T12:15:44.968Z,93758.47
2022-12-29T12:17:22.912Z,93756.47
2022-12-29T12:18:55.745Z,93751.19
2022-12-29T12:20:33.828Z,93748.28
2022-12-29T12:22:09.427Z,93748.50
2022-12-29T12:24:01.301Z,93744.38
2022-12-29T12:25:38.618Z,93743.28
2022-12-29T12:27:12.281Z,93736.91
2022-12-29T12:28:49.843Z,93739.69
2022-12-29T12:30:22.218Z,93733.78
2022-12-29T12:31:58.339Z,93735.69
2022-12-29T12:33:34.583Z,93738.59
2022-12-29T12:35:06.641Z,93737.28
2022-12-29T12:36:44.459Z,93738.22
2022-12-29T12:38:28.405Z,93735.88
2022-12-29T12:40:18.231Z,93738.50
2022-12-29T12:41:49.770Z,93736.88
2022-12-29T12:43:24.151Z,93732.28
2022-12-29T12:44:59.586Z,93732.50
2022-12-29T12:46:50.164Z,93730.50
2022-12-29T12:48:31.391Z,93729.41
2022-12-29T12:50:12.560Z,93726.50
2022-12-29T12:51:44.097Z,93725.81
2022-12-29T12:53:20.382Z,93729.59
2022-12-29T12:55:10.416Z,93727.50
2022-12-29T12:56:45.196Z,93723.31
2022-12-29T12:58:36.749Z,93728.09
2022-12-29T13:00:08.447Z,93721.00
2022-12-29T13:01:59.045Z,93727.19
2022-12-29T13:03:43.106Z,93725.09
2022-12-29T13:05:33.946Z,93716.19
2022-12-29T13:07:07.870Z,93726.09
2022-12-29T13:08:50.409Z,93725.31
2022-12-29T13:10:40.480Z,93732.28
2022-12-29T13:12:30.831Z,93735.72
2022-12-29T13:14:20.945Z,93733.41
2022-12-29T13:15:52.622Z,93723.94
2022-12-29T13:17:24.256Z,93731.41
2022-12-29T13:19:04.969Z,93732.31
2022-12-29T13:20:45.531Z,93719.91
2022-12-29T13:22:23.381Z,93728.63
2022-12-29T13:24:01.922Z,93719.28
2022-12-29T13:25:33.501Z,93718.69
2022-12-29T13:27:13.025Z,93718.06
2022-12-29T13:28:53.379Z,93723.38
2022-12-29T13:30:28.186Z,93719.78
2022-12-29T13:32:09.098Z,93718.75
2022-12-29T13:33:43.696Z,93721.03
2022-12-29T13:35:33.600Z,93728.06
2022-12-29T13:37:05.737Z,93727.44
2022-12-29T13:38:38.765Z,93731.25
2022-12-29T13:40:18.867Z,93724.00
2022-12-29T13:41:51.843Z,93723.75
2022-12-29T13:43:23.491Z,93724.31
2022-12-29T13:45:01.793Z,93722.41
2022-12-29T13:46:44.075Z,93726.06
2022-12-29T13:48:17.809Z,93732.81
2022-12-29T13:49:49.551Z,93724.97
2022-12-29T13:51:27.411Z,93740.31
2022-12-29T13:52:59.563Z,93730.50
2022-12-29T13:54:31.200Z,93736.75
2022-12-29T13:56:10.711Z,93741.72
2022-12-29T13:57:47.151Z,93744.44
2022-12-29T13:59:43.334Z,93742.44
2022-12-29T14:01:20.621Z,93739.16
2022-12-29T14:02:52.552Z,93739.41
2022-12-29T14:04:25.658Z,93741.88
2022-12-29T14:06:20.509Z,93734.81
2022-12-29T14:07:59.853Z,93733.16
2022-12-29T14:09:37.682Z,93738.16
2022-12-29T14:11:12.616Z,93738.00
2022-12-29T14:12:45.021Z,93730.69
2022-12-29T14:14:28.487Z,93729.91
2022-12-29T14:16:00.353Z,93734.31
2022-12-29T14:17:32.022Z,93736.63
2022-12-29T14:19:12.652Z,93731.63
2022-12-29T14:21:13.596Z,93737.97
2022-12-29T14:23:22.114Z,93740.22
2022-12-29T14:24:54.832Z,93734.66
2022-12-29T14:26:29.275Z,93739.84
2022-12-29T14:28:01.041Z,93741.75
2022-12-29T14:29:32.811Z,93746.16
2022-12-29T14:31:18.760Z,93747.16
2022-12-29T14:33:12.707Z,93742.00
2022-12-29T14:34:50.329Z,93742.69
2022-12-29T14:36:30.585Z,93753.00
2022-12-29T14:38:13.647Z,93746.50
2022-12-29T14:39:48.604Z,93753.00
2022-12-29T14:41:31.528Z,93752.50
2022-12-29T14:43:04.532Z,93758.00
2022-12-29T14:44:58.143Z,93759.97
2022-12-29T14:46:48.307Z,93752.38
2022-12-29T14:48:30.306Z,93758.78
2022-12-29T14:50:23.504Z,93767.28
2022-12-29T14:51:58.900Z,93759.03
2022-12-29T14:54:01.537Z,93757.25
2022-12-29T14:55:42.075Z,93762.16
2022-12-29T14:57:21.254Z,93756.63
2022-12-29T14:58:56.741Z,93757.00
2022-12-29T15:00:32.007Z,93761.88
2022-12-29T15:02:17.193Z,93750.81
2022-12-29T15:03:52.544Z,93766.41
2022-12-29T15:05:29.584Z,93760.78
2022-12-29T15:07:01.140Z,93764.69
2022-12-29T15:08:35.895Z,93764.25
2022-12-29T15:10:08.803Z,93762.50
2022-12-29T15:11:42.684Z,93766.66
2022-12-29T15:13:18.775Z,93759.69
2022-12-29T15:14:57.868Z,93762.94
2022-12-29T15:16:34.867Z,93762.09
2022-12-29T15:18:14.076Z,93761.28
2022-12-29T15:19:46.520Z,93762.66
2022-12-29T15:21:18.965Z,93763.63
2022-12-29T15:22:54.148Z,93764.28
2022-12-29T15:24:27.119Z,93761.16
2022-12-29T15:26:01.328Z,93763.44
2022-12-29T15:27:34.833Z,93762.09
2022-12-29T15:29:06.485Z,93767.28
2022-12-29T15:30:40.253Z,93766.50
2022-12-29T15:32:18.464Z,93763.88
2022-12-29T15:33:55.251Z,93765.97
2022-12-29T15:35:30.746Z,93768.09
2022-12-29T15:37:09.563Z,93770.63
2022-12-29T15:38:41.955Z,93764.25
2022-12-29T15:40:25.311Z,93767.00
2022-12-29T15:42:04.102Z,93760.81
2022-12-29T15:43:59.630Z,93767.06
2022-12-29T15:45:33.793Z,93771.84
2022-12-29T15:47:05.940Z,93765.38
2022-12-29T15:48:37.548Z,93766.28
2022-12-29T15:50:10.436Z,93756.34
2022-12-29T15:51:42.877Z,93764.44
2022-12-29T15:53:20.359Z,93759.63
2022-12-29T15:54:52.831Z,93757.53
2022-12-29T15:56:26.264Z,93775.56
2022-12-29T15:57:59.498Z,93769.66
2022-12-29T15:59:32.641Z,93768.88
2022-12-29T16:01:04.397Z,93766.47
2022-12-29T16:02:36.279Z,93773.22
2022-12-29T16:04:08.763Z,93772.41
2022-12-29T16:05:42.123Z,93769.44
2022-12-29T16:07:27.319Z,93768.63
2022-12-29T16:08:59.805Z,93768.88
2022-12-29T16:10:31.914Z,93770.47
2022-12-29T16:12:07.942Z,93771.56
2022-12-29T16:13:40.714Z,93770.00
2022-12-29T16:15:13.616Z,93772.50
2022-12-29T16:16:45.631Z,93763.38
2022-12-29T16:18:23.281Z,93769.06
2022-12-29T16:19:58.388Z,93763.38
2022-12-29T16:21:30.960Z,93765.78
2022-12-29T16:23:02.670Z,93762.31
2022-12-29T16:24:34.296Z,93766.34
2022-12-29T16:26:08.967Z,93768.53
2022-12-29T16:27:41.679Z,93763.47
2022-12-29T16:29:13.997Z,93778.22
2022-12-29T16:30:45.778Z,93774.72
2022-12-29T16:32:32.604Z,93780.38
2022-12-29T16:34:14.473Z,93777.47
2022-12-29T16:35:47.273Z,93785.28
2022-12-29T16:37:31.999Z,93781.97
2022-12-29T16:39:09.345Z,93783.66
2022-12-29T16:41:00.678Z,93784.22
2022-12-29T16:42:38.972Z,93789.38
2022-12-29T16:44:15.253Z,93782.47
2022-12-29T16:45:46.955Z,93777.13
2022-12-29T16:47:19.752Z,93777.44
2022-12-29T16:48:52.217Z,93778.25
2022-12-29T16:50:28.676Z,93783.41
2022-12-29T16:52:00.499Z,93779.38
2022-12-29T16:53:36.283Z,93777.00
2022-12-29T16:55:16.070Z,93783.97
2022-12-29T16:56:47.599Z,93783.97
2022-12-29T16:58:19.785Z,93794.38
2022-12-29T16:59:51.850Z,93789.81
2022-12-29T17:01:23.625Z,93792.75
2022-12-29T17:02:56.100Z,93787.38
2022-12-29T17:04:27.794Z,93788.44
2022-12-29T17:05:59.662Z,93792.22
2022-12-29T17:07:31.601Z,93789.78
2022-12-29T17:09:03.358Z,93794.09
2022-12-29T17:10:53.504Z,93795.19
2022-12-29T17:12:27.005Z,93801.38
2022-12-29T17:13:58.646Z,93794.69
2022-12-29T17:15:33.376Z,93796.03
2022-12-29T17:17:06.160Z,93795.31
2022-12-29T17:18:37.791Z,93787.56
2022-12-29T17:20:21.607Z,93793.00
2022-12-29T17:21:53.300Z,93801.06
2022-12-29T17:23:26.760Z,93796.72
2022-12-29T17:25:00.015Z,93795.16
2022-12-29T17:26:31.525Z,93793.28
2022-12-29T17:28:04.514Z,93795.44
2022-12-29T17:29:39.613Z,93791.16
2022-12-29T17:31:11.566Z,93793.59
2022-12-29T17:32:43.493Z,93796.34
2022-12-29T17:34:15.208Z,93799.13
2022-12-29T17:35:50.531Z,93800.50
2022-12-29T17:37:30.695Z,93807.47
2022-12-29T17:39:02.316Z,93797.25
2022-12-29T17:40:34.107Z,93798.06
2022-12-29T17:42:21.349Z,93799.13
2022-12-29T17:43:52.911Z,93793.28
2022-12-29T17:45:27.845Z,93791.69
2022-12-29T17:46:59.400Z,93789.50
2022-12-29T17:48:31.303Z,93798.38
2022-12-29T17:50:03.620Z,93796.75
2022-12-29T17:51:37.903Z,93793.84
2022-12-29T17:53:21.114Z,93787.69
2022-12-29T17:54:53.062Z,93790.09
2022-12-29T17:56:33.436Z,93792.47
2022-12-29T17:58:28.009Z,93793.28
2022-12-29T18:00:02.856Z,93795.13
2022-12-29T18:01:38.069Z,93799.13
2022-12-29T18:03:15.176Z,93793.75
2022-12-29T18:04:52.136Z,93788.94
2022-12-29T18:06:23.917Z,93787.06
2022-12-29T18:07:56.485Z,93790.84
2022-12-29T18:09:28.279Z,93789.22
2022-12-29T18:10:59.830Z,93787.34
2022-12-29T18:12:33.588Z,93790.59
2022-12-29T18:14:05.244Z,93781.44
2022-12-29T18:15:36.892Z,93789.78
2022-12-29T18:17:12.681Z,93783.31
2022-12-29T18:18:44.274Z,93779.00
2022-12-29T18:20:15.849Z,93784.66
2022-12-29T18:21:47.410Z,93779.34
2022-12-29T18:23:20.686Z,93778.06
2022-12-29T18:24:52.285Z,93779.19
2022-12-29T18:26:27.952Z,93781.34
2022-12-29T18:28:00.398Z,93784.59
2022-12-29T18:29:32.418Z,93783.50
2022-12-29T18:31:03.982Z,93789.69
2022-12-29T18:32:35.629Z,93783.50
2022-12-29T18:34:14.098Z,93777.63
2022-12-29T18:35:47.124Z,93783.28
2022-12-29T18:37:18.913Z,93783.50
2022-12-29T18:38:54.259Z,93789.97
2022-12-29T18:40:26.670Z,93785.13
2022-12-29T18:41:58.350Z,93775.97
2022-12-29T18:43:29.915Z,93782.97
2022-12-29T18:45:01.431Z,93780.63
2022-12-29T18:46:33.012Z,93777.97
2022-12-29T18:48:04.949Z,93783.13
2022-12-29T18:49:36.872Z,93784.75
2022-12-29T18:51:13.456Z,93784.50
2022-12-29T18:52:45.191Z,93788.81
2022-12-29T18:54:25.088Z,93781.00
2022-12-29T18:55:57.617Z,93785.84
2022-12-29T18:57:31.352Z,93789.88
2022-12-29T18:59:02.955Z,93792.06
2022-12-29T19:00:34.544Z,93788.00
2022-12-29T19:02:06.162Z,93789.84